sensor_id;sensor_type;location;lat;lon;timestamp;P1;durP1;ratioP1;P2;durP2;ratioP2
24030;SDS011;12240;51.142;22.486;2022-09-12T00:01:23;7.65;;;2.53;;
24030;SDS011;12240;51.142;22.486;2022-09-12T00:03:53;10.30;;;4.65;;
24030;SDS011;12240;51.142;22.486;2022-09-12T00:06:30;7.43;;;3.97;;
24030;SDS011;12240;51.142;22.486;2022-09-12T00:09:03;9.07;;;3.85;;
24030;SDS011;12240;51.142;22.486;2022-09-12T00:11:37;9.05;;;4.47;;
24030;SDS011;12240;51.142;22.486;2022-09-12T00:14:07;9.52;;;4.57;;
24030;SDS011;12240;51.142;22.486;2022-09-12T00:16:37;13.03;;;4.63;;
24030;SDS011;12240;51.142;22.486;2022-09-12T00:19:07;8.60;;;4.72;;
24030;SDS011;12240;51.142;22.486;2022-09-12T00:21:37;11.10;;;5.45;;
24030;SDS011;12240;51.142;22.486;2022-09-12T00:24:07;10.80;;;4.80;;
24030;SDS011;12240;51.142;22.486;2022-09-12T00:26:36;6.93;;;4.20;;
24030;SDS011;12240;51.142;22.486;2022-09-12T00:29:04;8.15;;;4.38;;
24030;SDS011;12240;51.142;22.486;2022-09-12T00:31:32;13.68;;;5.43;;
24030;SDS011;12240;51.142;22.486;2022-09-12T00:34:01;8.65;;;4.55;;
24030;SDS011;12240;51.142;22.486;2022-09-12T00:36:29;10.63;;;4.95;;
24030;SDS011;12240;51.142;22.486;2022-09-12T00:38:57;14.48;;;4.68;;
24030;SDS011;12240;51.142;22.486;2022-09-12T00:43:56;11.40;;;4.60;;
24030;SDS011;12240;51.142;22.486;2022-09-12T00:46:41;7.90;;;4.22;;
24030;SDS011;12240;51.142;22.486;2022-09-12T00:52:32;13.50;;;4.22;;
24030;SDS011;12240;51.142;22.486;2022-09-12T00:55:27;10.85;;;3.05;;
24030;SDS011;12240;51.142;22.486;2022-09-12T00:58:16;9.77;;;4.82;;
24030;SDS011;12240;51.142;22.486;2022-09-12T01:00:49;7.55;;;4.07;;
24030;SDS011;12240;51.142;22.486;2022-09-12T01:03:20;9.88;;;3.70;;
24030;SDS011;12240;51.142;22.486;2022-09-12T01:05:57;15.40;;;4.50;;
24030;SDS011;12240;51.142;22.486;2022-09-12T01:08:35;7.45;;;4.05;;
24030;SDS011;12240;51.142;22.486;2022-09-12T01:11:04;8.15;;;4.57;;
24030;SDS011;12240;51.142;22.486;2022-09-12T01:13:35;10.70;;;4.47;;
24030;SDS011;12240;51.142;22.486;2022-09-12T01:16:04;11.32;;;4.40;;
24030;SDS011;12240;51.142;22.486;2022-09-12T01:30:46;12.00;;;4.47;;
24030;SDS011;12240;51.142;22.486;2022-09-12T01:42:34;11.38;;;7.40;;
24030;SDS011;12240;51.142;22.486;2022-09-12T01:48:12;10.60;;;7.35;;
24030;SDS011;12240;51.142;22.486;2022-09-12T01:51:22;15.80;;;7.72;;
24030;SDS011;12240;51.142;22.486;2022-09-12T01:54:05;11.88;;;6.55;;
24030;SDS011;12240;51.142;22.486;2022-09-12T01:56:50;11.52;;;5.28;;
24030;SDS011;12240;51.142;22.486;2022-09-12T01:59:32;15.60;;;6.78;;
24030;SDS011;12240;51.142;22.486;2022-09-12T02:02:14;11.07;;;6.40;;
24030;SDS011;12240;51.142;22.486;2022-09-12T02:07:44;11.55;;;5.93;;
24030;SDS011;12240;51.142;22.486;2022-09-12T02:15:31;13.25;;;5.68;;
24030;SDS011;12240;51.142;22.486;2022-09-12T02:18:07;9.98;;;5.82;;
24030;SDS011;12240;51.142;22.486;2022-09-12T02:20:39;12.55;;;5.65;;
24030;SDS011;12240;51.142;22.486;2022-09-12T02:23:21;9.07;;;3.53;;
24030;SDS011;12240;51.142;22.486;2022-09-12T02:25:55;12.13;;;4.60;;
24030;SDS011;12240;51.142;22.486;2022-09-12T02:28:29;9.00;;;4.07;;
24030;SDS011;12240;51.142;22.486;2022-09-12T02:40:35;5.75;;;3.90;;
24030;SDS011;12240;51.142;22.486;2022-09-12T02:43:04;6.60;;;3.67;;
24030;SDS011;12240;51.142;22.486;2022-09-12T02:45:33;10.40;;;4.10;;
24030;SDS011;12240;51.142;22.486;2022-09-12T02:50:50;9.15;;;4.35;;
24030;SDS011;12240;51.142;22.486;2022-09-12T02:53:19;7.43;;;4.10;;
24030;SDS011;12240;51.142;22.486;2022-09-12T02:55:48;9.32;;;6.28;;
24030;SDS011;12240;51.142;22.486;2022-09-12T02:58:19;8.30;;;4.38;;
24030;SDS011;12240;51.142;22.486;2022-09-12T03:00:56;6.88;;;3.92;;
24030;SDS011;12240;51.142;22.486;2022-09-12T03:17:55;7.90;;;4.07;;
24030;SDS011;12240;51.142;22.486;2022-09-12T03:20:52;8.10;;;4.05;;
24030;SDS011;12240;51.142;22.486;2022-09-12T03:29:21;7.95;;;4.32;;
24030;SDS011;12240;51.142;22.486;2022-09-12T03:31:53;8.63;;;3.40;;
24030;SDS011;12240;51.142;22.486;2022-09-12T03:34:25;5.63;;;3.70;;
24030;SDS011;12240;51.142;22.486;2022-09-12T03:36:54;4.80;;;3.08;;
24030;SDS011;12240;51.142;22.486;2022-09-12T03:39:23;5.22;;;2.92;;
24030;SDS011;12240;51.142;22.486;2022-09-12T03:41:53;5.28;;;3.25;;
24030;SDS011;12240;51.142;22.486;2022-09-12T03:44:21;3.90;;;2.55;;
24030;SDS011;12240;51.142;22.486;2022-09-12T03:46:50;2.97;;;2.22;;
24030;SDS011;12240;51.142;22.486;2022-09-12T03:49:18;8.10;;;2.13;;
24030;SDS011;12240;51.142;22.486;2022-09-12T03:51:46;4.53;;;2.50;;
24030;SDS011;12240;51.142;22.486;2022-09-12T03:54:14;3.85;;;2.22;;
24030;SDS011;12240;51.142;22.486;2022-09-12T03:56:42;4.18;;;2.03;;
24030;SDS011;12240;51.142;22.486;2022-09-12T03:59:11;6.20;;;2.95;;
24030;SDS011;12240;51.142;22.486;2022-09-12T04:01:39;3.20;;;2.15;;
24030;SDS011;12240;51.142;22.486;2022-09-12T04:04:08;4.30;;;2.17;;
24030;SDS011;12240;51.142;22.486;2022-09-12T04:06:36;4.13;;;2.50;;
24030;SDS011;12240;51.142;22.486;2022-09-12T04:09:04;4.57;;;2.00;;
24030;SDS011;12240;51.142;22.486;2022-09-12T04:11:32;5.18;;;2.85;;
24030;SDS011;12240;51.142;22.486;2022-09-12T04:14:01;3.75;;;2.50;;
24030;SDS011;12240;51.142;22.486;2022-09-12T04:16:29;5.15;;;1.98;;
24030;SDS011;12240;51.142;22.486;2022-09-12T04:18:58;5.53;;;2.50;;
24030;SDS011;12240;51.142;22.486;2022-09-12T04:21:26;6.80;;;2.47;;
24030;SDS011;12240;51.142;22.486;2022-09-12T04:23:54;4.63;;;2.55;;
24030;SDS011;12240;51.142;22.486;2022-09-12T04:26:22;4.00;;;2.40;;
24030;SDS011;12240;51.142;22.486;2022-09-12T04:28:52;6.43;;;2.60;;
24030;SDS011;12240;51.142;22.486;2022-09-12T04:31:21;6.47;;;2.65;;
24030;SDS011;12240;51.142;22.486;2022-09-12T04:33:53;3.22;;;2.10;;
24030;SDS011;12240;51.142;22.486;2022-09-12T04:36:27;6.72;;;2.88;;
24030;SDS011;12240;51.142;22.486;2022-09-12T04:38:56;3.85;;;2.58;;
24030;SDS011;12240;51.142;22.486;2022-09-12T04:41:26;3.80;;;2.75;;
24030;SDS011;12240;51.142;22.486;2022-09-12T04:43:58;3.88;;;2.53;;
24030;SDS011;12240;51.142;22.486;2022-09-12T04:46:30;7.63;;;2.75;;
24030;SDS011;12240;51.142;22.486;2022-09-12T04:49:02;4.38;;;2.33;;
24030;SDS011;12240;51.142;22.486;2022-09-12T04:51:32;5.13;;;2.80;;
24030;SDS011;12240;51.142;22.486;2022-09-12T04:54:04;3.60;;;2.00;;
24030;SDS011;12240;51.142;22.486;2022-09-12T04:56:43;3.65;;;2.17;;
24030;SDS011;12240;51.142;22.486;2022-09-12T05:01:43;4.82;;;2.20;;
24030;SDS011;12240;51.142;22.486;2022-09-12T05:04:11;5.30;;;2.15;;
24030;SDS011;12240;51.142;22.486;2022-09-12T05:06:40;5.22;;;2.22;;
24030;SDS011;12240;51.142;22.486;2022-09-12T05:09:10;2.65;;;1.90;;
24030;SDS011;12240;51.142;22.486;2022-09-12T05:11:40;2.10;;;1.50;;
24030;SDS011;12240;51.142;22.486;2022-09-12T05:14:30;3.67;;;2.22;;
24030;SDS011;12240;51.142;22.486;2022-09-12T05:16:59;5.72;;;2.53;;
24030;SDS011;12240;51.142;22.486;2022-09-12T05:19:28;5.18;;;2.00;;
24030;SDS011;12240;51.142;22.486;2022-09-12T05:21:57;4.30;;;2.45;;
24030;SDS011;12240;51.142;22.486;2022-09-12T05:24:25;5.13;;;1.90;;
24030;SDS011;12240;51.142;22.486;2022-09-12T05:26:55;4.32;;;2.65;;
24030;SDS011;12240;51.142;22.486;2022-09-12T05:29:22;4.43;;;2.40;;
24030;SDS011;12240;51.142;22.486;2022-09-12T05:31:51;3.20;;;2.42;;
24030;SDS011;12240;51.142;22.486;2022-09-12T05:34:20;5.45;;;2.45;;
24030;SDS011;12240;51.142;22.486;2022-09-12T05:36:48;4.38;;;2.30;;
24030;SDS011;12240;51.142;22.486;2022-09-12T05:39:16;6.15;;;2.83;;
24030;SDS011;12240;51.142;22.486;2022-09-12T05:41:44;5.15;;;2.15;;
24030;SDS011;12240;51.142;22.486;2022-09-12T05:44:13;5.80;;;2.85;;
24030;SDS011;12240;51.142;22.486;2022-09-12T05:46:42;3.90;;;2.45;;
24030;SDS011;12240;51.142;22.486;2022-09-12T05:49:12;4.82;;;2.25;;
24030;SDS011;12240;51.142;22.486;2022-09-12T05:51:42;4.72;;;2.63;;
24030;SDS011;12240;51.142;22.486;2022-09-12T05:54:12;4.93;;;3.10;;
24030;SDS011;12240;51.142;22.486;2022-09-12T05:56:44;6.68;;;2.90;;
24030;SDS011;12240;51.142;22.486;2022-09-12T05:59:18;4.13;;;2.70;;
24030;SDS011;12240;51.142;22.486;2022-09-12T06:01:48;10.20;;;3.03;;
24030;SDS011;12240;51.142;22.486;2022-09-12T06:04:16;4.43;;;2.92;;
24030;SDS011;12240;51.142;22.486;2022-09-12T06:06:44;5.93;;;2.92;;
24030;SDS011;12240;51.142;22.486;2022-09-12T06:09:14;4.95;;;2.63;;
24030;SDS011;12240;51.142;22.486;2022-09-12T06:11:43;5.57;;;2.17;;
24030;SDS011;12240;51.142;22.486;2022-09-12T06:14:13;7.57;;;3.53;;
24030;SDS011;12240;51.142;22.486;2022-09-12T06:16:43;5.55;;;2.38;;
24030;SDS011;12240;51.142;22.486;2022-09-12T06:19:14;8.48;;;2.38;;
24030;SDS011;12240;51.142;22.486;2022-09-12T06:24:15;6.88;;;2.05;;
24030;SDS011;12240;51.142;22.486;2022-09-12T06:26:45;6.07;;;3.00;;
24030;SDS011;12240;51.142;22.486;2022-09-12T06:29:14;7.13;;;2.60;;
24030;SDS011;12240;51.142;22.486;2022-09-12T06:31:42;3.88;;;2.42;;
24030;SDS011;12240;51.142;22.486;2022-09-12T06:34:12;5.22;;;2.38;;
24030;SDS011;12240;51.142;22.486;2022-09-12T06:36:43;7.60;;;2.90;;
24030;SDS011;12240;51.142;22.486;2022-09-12T06:39:17;5.20;;;1.83;;
24030;SDS011;12240;51.142;22.486;2022-09-12T06:41:47;3.08;;;1.90;;
24030;SDS011;12240;51.142;22.486;2022-09-12T06:44:18;2.97;;;2.25;;
24030;SDS011;12240;51.142;22.486;2022-09-12T06:46:48;5.07;;;2.83;;
24030;SDS011;12240;51.142;22.486;2022-09-12T06:49:17;5.40;;;2.72;;
24030;SDS011;12240;51.142;22.486;2022-09-12T06:51:45;5.00;;;3.00;;
24030;SDS011;12240;51.142;22.486;2022-09-12T06:54:14;6.28;;;3.10;;
24030;SDS011;12240;51.142;22.486;2022-09-12T06:56:46;5.97;;;2.60;;
24030;SDS011;12240;51.142;22.486;2022-09-12T06:59:13;5.68;;;2.70;;
24030;SDS011;12240;51.142;22.486;2022-09-12T07:01:44;7.97;;;2.93;;
24030;SDS011;12240;51.142;22.486;2022-09-12T07:04:13;6.53;;;2.58;;
24030;SDS011;12240;51.142;22.486;2022-09-12T07:06:42;9.32;;;2.92;;
24030;SDS011;12240;51.142;22.486;2022-09-12T07:09:11;5.25;;;3.20;;
24030;SDS011;12240;51.142;22.486;2022-09-12T07:11:43;5.82;;;3.05;;
24030;SDS011;12240;51.142;22.486;2022-09-12T07:14:12;5.40;;;2.78;;
24030;SDS011;12240;51.142;22.486;2022-09-12T07:16:41;6.50;;;2.85;;
24030;SDS011;12240;51.142;22.486;2022-09-12T07:19:10;5.88;;;3.55;;
24030;SDS011;12240;51.142;22.486;2022-09-12T07:21:38;5.60;;;3.13;;
24030;SDS011;12240;51.142;22.486;2022-09-12T07:24:08;6.95;;;3.17;;
24030;SDS011;12240;51.142;22.486;2022-09-12T07:26:37;6.38;;;3.38;;
24030;SDS011;12240;51.142;22.486;2022-09-12T07:29:15;8.98;;;3.40;;
24030;SDS011;12240;51.142;22.486;2022-09-12T07:32:04;6.05;;;3.72;;
24030;SDS011;12240;51.142;22.486;2022-09-12T07:34:33;5.45;;;2.60;;
24030;SDS011;12240;51.142;22.486;2022-09-12T07:37:01;4.78;;;3.10;;
24030;SDS011;12240;51.142;22.486;2022-09-12T07:39:29;5.05;;;3.60;;
24030;SDS011;12240;51.142;22.486;2022-09-12T07:42:00;5.45;;;2.38;;
24030;SDS011;12240;51.142;22.486;2022-09-12T07:44:27;6.03;;;3.53;;
24030;SDS011;12240;51.142;22.486;2022-09-12T07:46:55;5.10;;;3.15;;
24030;SDS011;12240;51.142;22.486;2022-09-12T07:49:23;7.68;;;3.42;;
24030;SDS011;12240;51.142;22.486;2022-09-12T07:51:51;6.32;;;3.83;;
24030;SDS011;12240;51.142;22.486;2022-09-12T07:54:20;6.25;;;3.38;;
24030;SDS011;12240;51.142;22.486;2022-09-12T07:56:48;6.05;;;2.70;;
24030;SDS011;12240;51.142;22.486;2022-09-12T07:59:16;6.68;;;3.15;;
24030;SDS011;12240;51.142;22.486;2022-09-12T08:02:04;6.45;;;3.33;;
24030;SDS011;12240;51.142;22.486;2022-09-12T08:04:33;16.70;;;3.55;;
24030;SDS011;12240;51.142;22.486;2022-09-12T08:07:02;7.00;;;3.28;;
24030;SDS011;12240;51.142;22.486;2022-09-12T08:09:30;6.88;;;3.08;;
24030;SDS011;12240;51.142;22.486;2022-09-12T08:11:58;6.05;;;3.22;;
24030;SDS011;12240;51.142;22.486;2022-09-12T08:14:26;5.80;;;3.13;;
24030;SDS011;12240;51.142;22.486;2022-09-12T08:16:54;7.15;;;3.65;;
24030;SDS011;12240;51.142;22.486;2022-09-12T08:19:22;5.20;;;3.20;;
24030;SDS011;12240;51.142;22.486;2022-09-12T08:21:50;6.55;;;2.97;;
24030;SDS011;12240;51.142;22.486;2022-09-12T08:24:19;9.32;;;3.72;;
24030;SDS011;12240;51.142;22.486;2022-09-12T08:26:48;7.60;;;3.55;;
24030;SDS011;12240;51.142;22.486;2022-09-12T08:29:15;6.00;;;3.00;;
24030;SDS011;12240;51.142;22.486;2022-09-12T08:31:43;7.05;;;3.58;;
24030;SDS011;12240;51.142;22.486;2022-09-12T08:34:12;8.73;;;3.35;;
24030;SDS011;12240;51.142;22.486;2022-09-12T08:36:43;6.43;;;3.22;;
24030;SDS011;12240;51.142;22.486;2022-09-12T08:39:11;5.20;;;3.50;;
24030;SDS011;12240;51.142;22.486;2022-09-12T08:41:44;10.80;;;3.50;;
24030;SDS011;12240;51.142;22.486;2022-09-12T08:55:44;5.63;;;2.50;;
24030;SDS011;12240;51.142;22.486;2022-09-12T08:58:22;7.30;;;3.42;;
24030;SDS011;12240;51.142;22.486;2022-09-12T09:20:39;5.63;;;2.65;;
24030;SDS011;12240;51.142;22.486;2022-09-12T09:26:09;6.25;;;2.88;;
24030;SDS011;12240;51.142;22.486;2022-09-12T09:31:33;9.05;;;3.50;;
24030;SDS011;12240;51.142;22.486;2022-09-12T09:34:10;5.20;;;3.28;;
24030;SDS011;12240;51.142;22.486;2022-09-12T09:36:59;9.55;;;2.95;;
24030;SDS011;12240;51.142;22.486;2022-09-12T09:45:11;6.00;;;3.13;;
24030;SDS011;12240;51.142;22.486;2022-09-12T09:50:46;5.15;;;2.75;;
24030;SDS011;12240;51.142;22.486;2022-09-12T09:56:36;8.68;;;3.53;;
24030;SDS011;12240;51.142;22.486;2022-09-12T09:59:07;4.63;;;2.45;;
24030;SDS011;12240;51.142;22.486;2022-09-12T10:01:54;5.55;;;2.72;;
24030;SDS011;12240;51.142;22.486;2022-09-12T10:04:54;7.22;;;3.28;;
24030;SDS011;12240;51.142;22.486;2022-09-12T10:07:25;6.68;;;3.70;;
24030;SDS011;12240;51.142;22.486;2022-09-12T10:10:13;6.40;;;3.63;;
24030;SDS011;12240;51.142;22.486;2022-09-12T10:12:44;9.13;;;3.45;;
24030;SDS011;12240;51.142;22.486;2022-09-12T10:17:50;4.82;;;2.97;;
24030;SDS011;12240;51.142;22.486;2022-09-12T10:20:38;7.30;;;3.08;;
24030;SDS011;12240;51.142;22.486;2022-09-12T10:25:58;6.07;;;3.53;;
24030;SDS011;12240;51.142;22.486;2022-09-12T10:28:38;9.27;;;4.63;;
24030;SDS011;12240;51.142;22.486;2022-09-12T10:31:22;6.32;;;4.35;;
24030;SDS011;12240;51.142;22.486;2022-09-12T10:34:02;11.55;;;5.60;;
24030;SDS011;12240;51.142;22.486;2022-09-12T10:36:35;11.85;;;4.65;;
24030;SDS011;12240;51.142;22.486;2022-09-12T10:39:05;9.65;;;4.80;;
24030;SDS011;12240;51.142;22.486;2022-09-12T10:41:44;7.97;;;3.47;;
24030;SDS011;12240;51.142;22.486;2022-09-12T10:44:14;11.13;;;4.95;;
24030;SDS011;12240;51.142;22.486;2022-09-12T10:49:24;8.93;;;4.65;;
24030;SDS011;12240;51.142;22.486;2022-09-12T10:51:52;7.15;;;4.45;;
24030;SDS011;12240;51.142;22.486;2022-09-12T10:54:22;9.77;;;4.95;;
24030;SDS011;12240;51.142;22.486;2022-09-12T11:02:50;6.35;;;3.63;;
24030;SDS011;12240;51.142;22.486;2022-09-12T11:14:27;6.60;;;3.97;;
24030;SDS011;12240;51.142;22.486;2022-09-12T11:20:49;6.88;;;3.95;;
24030;SDS011;12240;51.142;22.486;2022-09-12T11:34:16;8.90;;;4.25;;
24030;SDS011;12240;51.142;22.486;2022-09-12T11:37:22;10.18;;;5.47;;
24030;SDS011;12240;51.142;22.486;2022-09-12T11:42:46;9.25;;;5.72;;
24030;SDS011;12240;51.142;22.486;2022-09-12T11:45:22;11.60;;;5.22;;
24030;SDS011;12240;51.142;22.486;2022-09-12T11:48:12;5.82;;;3.42;;
24030;SDS011;12240;51.142;22.486;2022-09-12T11:51:17;7.15;;;4.68;;
24030;SDS011;12240;51.142;22.486;2022-09-12T11:57:07;10.25;;;4.57;;
24030;SDS011;12240;51.142;22.486;2022-09-12T12:05:52;11.18;;;4.90;;
24030;SDS011;12240;51.142;22.486;2022-09-12T12:08:24;7.93;;;4.03;;
24030;SDS011;12240;51.142;22.486;2022-09-12T12:10:56;8.18;;;4.50;;
24030;SDS011;12240;51.142;22.486;2022-09-12T12:16:23;9.43;;;4.38;;
24030;SDS011;12240;51.142;22.486;2022-09-12T12:18:58;8.73;;;5.65;;
24030;SDS011;12240;51.142;22.486;2022-09-12T12:21:43;8.40;;;4.95;;
24030;SDS011;12240;51.142;22.486;2022-09-12T12:24:20;10.52;;;5.25;;
24030;SDS011;12240;51.142;22.486;2022-09-12T12:27:04;11.73;;;5.65;;
24030;SDS011;12240;51.142;22.486;2022-09-12T12:35:43;6.32;;;3.60;;
24030;SDS011;12240;51.142;22.486;2022-09-12T12:46:16;11.32;;;3.67;;
24030;SDS011;12240;51.142;22.486;2022-09-12T12:54:31;10.10;;;4.45;;
24030;SDS011;12240;51.142;22.486;2022-09-12T13:02:33;9.88;;;6.00;;
24030;SDS011;12240;51.142;22.486;2022-09-12T13:05:18;9.77;;;5.75;;
24030;SDS011;12240;51.142;22.486;2022-09-12T13:07:57;7.55;;;3.50;;
24030;SDS011;12240;51.142;22.486;2022-09-12T13:11:06;10.30;;;4.15;;
24030;SDS011;12240;51.142;22.486;2022-09-12T13:13:49;5.88;;;3.53;;
24030;SDS011;12240;51.142;22.486;2022-09-12T13:19:14;9.95;;;6.38;;
24030;SDS011;12240;51.142;22.486;2022-09-12T13:21:55;10.80;;;7.60;;
24030;SDS011;12240;51.142;22.486;2022-09-12T13:24:33;14.48;;;8.63;;
24030;SDS011;12240;51.142;22.486;2022-09-12T13:27:22;11.63;;;7.22;;
24030;SDS011;12240;51.142;22.486;2022-09-12T13:30:05;13.10;;;7.47;;
24030;SDS011;12240;51.142;22.486;2022-09-12T13:32:41;17.15;;;9.30;;
24030;SDS011;12240;51.142;22.486;2022-09-12T13:44:41;17.58;;;10.75;;
24030;SDS011;12240;51.142;22.486;2022-09-12T13:47:30;18.08;;;10.65;;
24030;SDS011;12240;51.142;22.486;2022-09-12T13:50:04;21.13;;;10.57;;
24030;SDS011;12240;51.142;22.486;2022-09-12T13:52:35;18.92;;;11.15;;
24030;SDS011;12240;51.142;22.486;2022-09-12T13:55:13;20.35;;;9.70;;
24030;SDS011;12240;51.142;22.486;2022-09-12T13:58:12;23.55;;;9.63;;
24030;SDS011;12240;51.142;22.486;2022-09-12T14:06:46;16.73;;;9.57;;
24030;SDS011;12240;51.142;22.486;2022-09-12T14:09:24;16.00;;;9.52;;
24030;SDS011;12240;51.142;22.486;2022-09-12T14:12:24;15.70;;;8.77;;
24030;SDS011;12240;51.142;22.486;2022-09-12T14:14:53;18.25;;;10.05;;
24030;SDS011;12240;51.142;22.486;2022-09-12T14:20:04;16.08;;;8.25;;
24030;SDS011;12240;51.142;22.486;2022-09-12T14:22:42;15.02;;;8.48;;
24030;SDS011;12240;51.142;22.486;2022-09-12T14:25:18;13.48;;;9.13;;
24030;SDS011;12240;51.142;22.486;2022-09-12T14:27:52;16.33;;;8.80;;
24030;SDS011;12240;51.142;22.486;2022-09-12T14:35:31;15.05;;;8.52;;
24030;SDS011;12240;51.142;22.486;2022-09-12T14:38:34;19.70;;;11.90;;
24030;SDS011;12240;51.142;22.486;2022-09-12T14:41:09;17.77;;;10.90;;
24030;SDS011;12240;51.142;22.486;2022-09-12T14:43:49;23.00;;;11.52;;
24030;SDS011;12240;51.142;22.486;2022-09-12T14:49:16;18.38;;;10.40;;
24030;SDS011;12240;51.142;22.486;2022-09-12T14:51:54;21.65;;;11.80;;
24030;SDS011;12240;51.142;22.486;2022-09-12T14:56:56;18.25;;;10.95;;
24030;SDS011;12240;51.142;22.486;2022-09-12T15:07:42;20.35;;;10.13;;
24030;SDS011;12240;51.142;22.486;2022-09-12T15:10:24;12.82;;;8.50;;
24030;SDS011;12240;51.142;22.486;2022-09-12T15:15:54;11.32;;;6.93;;
24030;SDS011;12240;51.142;22.486;2022-09-12T15:18:25;13.52;;;6.32;;
24030;SDS011;12240;51.142;22.486;2022-09-12T15:21:02;12.80;;;6.05;;
24030;SDS011;12240;51.142;22.486;2022-09-12T15:26:18;10.60;;;5.22;;
24030;SDS011;12240;51.142;22.486;2022-09-12T15:28:49;10.80;;;5.00;;
24030;SDS011;12240;51.142;22.486;2022-09-12T15:33:53;9.20;;;4.80;;
24030;SDS011;12240;51.142;22.486;2022-09-12T15:36:23;8.15;;;4.78;;
24030;SDS011;12240;51.142;22.486;2022-09-12T15:38:52;7.50;;;4.07;;
24030;SDS011;12240;51.142;22.486;2022-09-12T15:41:21;10.23;;;5.10;;
24030;SDS011;12240;51.142;22.486;2022-09-12T15:43:56;10.85;;;6.22;;
24030;SDS011;12240;51.142;22.486;2022-09-12T15:46:24;11.82;;;4.65;;
24030;SDS011;12240;51.142;22.486;2022-09-12T15:48:53;9.20;;;5.05;;
24030;SDS011;12240;51.142;22.486;2022-09-12T15:51:22;7.47;;;4.10;;
24030;SDS011;12240;51.142;22.486;2022-09-12T15:53:50;10.00;;;4.88;;
24030;SDS011;12240;51.142;22.486;2022-09-12T15:56:19;9.50;;;4.72;;
24030;SDS011;12240;51.142;22.486;2022-09-12T15:58:48;8.00;;;4.78;;
24030;SDS011;12240;51.142;22.486;2022-09-12T16:01:26;10.65;;;4.45;;
24030;SDS011;12240;51.142;22.486;2022-09-12T16:03:55;7.80;;;4.70;;
24030;SDS011;12240;51.142;22.486;2022-09-12T16:06:24;13.30;;;4.68;;
24030;SDS011;12240;51.142;22.486;2022-09-12T16:08:54;9.57;;;4.43;;
24030;SDS011;12240;51.142;22.486;2022-09-12T16:11:22;10.50;;;5.93;;
24030;SDS011;12240;51.142;22.486;2022-09-12T16:13:53;8.10;;;4.70;;
24030;SDS011;12240;51.142;22.486;2022-09-12T16:16:23;10.10;;;5.18;;
24030;SDS011;12240;51.142;22.486;2022-09-12T16:18:51;10.95;;;5.45;;
24030;SDS011;12240;51.142;22.486;2022-09-12T16:21:19;8.95;;;4.75;;
24030;SDS011;12240;51.142;22.486;2022-09-12T16:23:48;10.65;;;5.13;;
24030;SDS011;12240;51.142;22.486;2022-09-12T16:26:16;10.27;;;4.63;;
24030;SDS011;12240;51.142;22.486;2022-09-12T16:28:45;7.32;;;3.78;;
24030;SDS011;12240;51.142;22.486;2022-09-12T16:31:13;11.25;;;4.97;;
24030;SDS011;12240;51.142;22.486;2022-09-12T16:33:41;12.50;;;5.03;;
24030;SDS011;12240;51.142;22.486;2022-09-12T16:36:11;12.73;;;6.18;;
24030;SDS011;12240;51.142;22.486;2022-09-12T16:38:42;11.70;;;5.80;;
24030;SDS011;12240;51.142;22.486;2022-09-12T16:41:16;10.95;;;5.63;;
24030;SDS011;12240;51.142;22.486;2022-09-12T16:43:51;12.48;;;5.78;;
24030;SDS011;12240;51.142;22.486;2022-09-12T16:46:24;21.92;;;10.65;;
24030;SDS011;12240;51.142;22.486;2022-09-12T16:48:57;10.75;;;6.03;;
24030;SDS011;12240;51.142;22.486;2022-09-12T16:51:26;10.43;;;6.30;;
24030;SDS011;12240;51.142;22.486;2022-09-12T16:53:58;33.58;;;18.63;;
24030;SDS011;12240;51.142;22.486;2022-09-12T16:56:27;71.80;;;23.02;;
24030;SDS011;12240;51.142;22.486;2022-09-12T16:58:55;59.17;;;24.15;;
24030;SDS011;12240;51.142;22.486;2022-09-12T17:01:24;34.72;;;18.15;;
24030;SDS011;12240;51.142;22.486;2022-09-12T17:03:53;14.45;;;6.20;;
24030;SDS011;12240;51.142;22.486;2022-09-12T17:06:24;11.70;;;6.15;;
24030;SDS011;12240;51.142;22.486;2022-09-12T17:08:54;17.45;;;5.68;;
24030;SDS011;12240;51.142;22.486;2022-09-12T17:11:28;9.40;;;5.97;;
24030;SDS011;12240;51.142;22.486;2022-09-12T17:14:00;11.35;;;5.57;;
24030;SDS011;12240;51.142;22.486;2022-09-12T17:16:36;16.48;;;7.18;;
24030;SDS011;12240;51.142;22.486;2022-09-12T17:19:18;9.00;;;5.13;;
24030;SDS011;12240;51.142;22.486;2022-09-12T17:21:56;8.10;;;5.25;;
24030;SDS011;12240;51.142;22.486;2022-09-12T17:24:28;9.02;;;5.57;;
24030;SDS011;12240;51.142;22.486;2022-09-12T17:26:59;9.18;;;5.22;;
24030;SDS011;12240;51.142;22.486;2022-09-12T17:29:27;10.95;;;5.63;;
24030;SDS011;12240;51.142;22.486;2022-09-12T17:31:55;9.85;;;5.43;;
24030;SDS011;12240;51.142;22.486;2022-09-12T17:34:23;9.65;;;5.70;;
24030;SDS011;12240;51.142;22.486;2022-09-12T17:36:51;8.20;;;4.82;;
24030;SDS011;12240;51.142;22.486;2022-09-12T17:39:20;9.32;;;4.90;;
24030;SDS011;12240;51.142;22.486;2022-09-12T17:41:48;6.82;;;4.22;;
24030;SDS011;12240;51.142;22.486;2022-09-12T17:44:18;12.18;;;5.47;;
24030;SDS011;12240;51.142;22.486;2022-09-12T17:46:46;7.63;;;4.10;;
24030;SDS011;12240;51.142;22.486;2022-09-12T17:49:15;8.60;;;5.13;;
24030;SDS011;12240;51.142;22.486;2022-09-12T17:51:47;9.18;;;5.38;;
24030;SDS011;12240;51.142;22.486;2022-09-12T17:54:16;18.33;;;7.88;;
24030;SDS011;12240;51.142;22.486;2022-09-12T17:56:47;14.18;;;7.68;;
24030;SDS011;12240;51.142;22.486;2022-09-12T17:59:18;17.37;;;7.90;;
24030;SDS011;12240;51.142;22.486;2022-09-12T18:01:49;14.00;;;6.45;;
24030;SDS011;12240;51.142;22.486;2022-09-12T18:04:36;11.95;;;6.85;;
24030;SDS011;12240;51.142;22.486;2022-09-12T18:07:05;11.98;;;7.53;;
24030;SDS011;12240;51.142;22.486;2022-09-12T18:09:35;11.90;;;6.63;;
24030;SDS011;12240;51.142;22.486;2022-09-12T18:12:03;16.92;;;10.25;;
24030;SDS011;12240;51.142;22.486;2022-09-12T18:14:36;11.63;;;6.15;;
24030;SDS011;12240;51.142;22.486;2022-09-12T18:17:08;21.00;;;8.93;;
24030;SDS011;12240;51.142;22.486;2022-09-12T18:19:37;27.42;;;8.52;;
24030;SDS011;12240;51.142;22.486;2022-09-12T18:22:06;47.08;;;23.38;;
24030;SDS011;12240;51.142;22.486;2022-09-12T18:24:34;11.32;;;5.43;;
24030;SDS011;12240;51.142;22.486;2022-09-12T18:27:02;13.25;;;7.40;;
24030;SDS011;12240;51.142;22.486;2022-09-12T18:29:31;12.80;;;5.05;;
24030;SDS011;12240;51.142;22.486;2022-09-12T18:31:59;12.10;;;5.85;;
24030;SDS011;12240;51.142;22.486;2022-09-12T18:34:27;8.95;;;4.38;;
24030;SDS011;12240;51.142;22.486;2022-09-12T18:36:55;7.93;;;4.50;;
24030;SDS011;12240;51.142;22.486;2022-09-12T18:39:23;9.13;;;4.38;;
24030;SDS011;12240;51.142;22.486;2022-09-12T18:41:54;8.25;;;4.05;;
24030;SDS011;12240;51.142;22.486;2022-09-12T18:44:22;8.00;;;3.78;;
24030;SDS011;12240;51.142;22.486;2022-09-12T18:46:50;11.10;;;5.97;;
24030;SDS011;12240;51.142;22.486;2022-09-12T18:49:19;10.05;;;6.50;;
24030;SDS011;12240;51.142;22.486;2022-09-12T18:51:47;8.77;;;5.00;;
24030;SDS011;12240;51.142;22.486;2022-09-12T18:54:15;10.10;;;5.25;;
24030;SDS011;12240;51.142;22.486;2022-09-12T18:56:44;11.52;;;5.57;;
24030;SDS011;12240;51.142;22.486;2022-09-12T18:59:18;10.15;;;5.18;;
24030;SDS011;12240;51.142;22.486;2022-09-12T19:01:46;13.57;;;6.57;;
24030;SDS011;12240;51.142;22.486;2022-09-12T19:04:16;6.53;;;4.32;;
24030;SDS011;12240;51.142;22.486;2022-09-12T19:06:45;8.43;;;4.20;;
24030;SDS011;12240;51.142;22.486;2022-09-12T19:09:16;7.80;;;4.07;;
24030;SDS011;12240;51.142;22.486;2022-09-12T19:11:49;5.40;;;3.75;;